sensor_id;sensor_type;location;lat;lon;timestamp;P1;durP1;ratioP1;P2;durP2;ratioP2
63089;SDS011;49174;43.198;27.824;2023-06-05T00:01:13;2.92;;;1.48;;
63089;SDS011;49174;43.198;27.824;2023-06-05T00:03:39;4.65;;;1.75;;
63089;SDS011;49174;43.198;27.824;2023-06-05T00:06:04;5.88;;;1.58;;
63089;SDS011;49174;43.198;27.824;2023-06-05T00:08:31;2.63;;;1.80;;
63089;SDS011;49174;43.198;27.824;2023-06-05T00:10:57;3.40;;;1.67;;
63089;SDS011;49174;43.198;27.824;2023-06-05T00:13:22;3.47;;;1.75;;
63089;SDS011;49174;43.198;27.824;2023-06-05T00:15:48;6.75;;;2.00;;
63089;SDS011;49174;43.198;27.824;2023-06-05T00:18:13;2.25;;;1.17;;
63089;SDS011;49174;43.198;27.824;2023-06-05T00:20:39;2.75;;;1.60;;
63089;SDS011;49174;43.198;27.824;2023-06-05T00:23:05;3.13;;;1.40;;
63089;SDS011;49174;43.198;27.824;2023-06-05T00:25:31;2.58;;;1.35;;
63089;SDS011;49174;43.198;27.824;2023-06-05T00:27:57;2.75;;;1.25;;
63089;SDS011;49174;43.198;27.824;2023-06-05T00:30:22;3.40;;;1.50;;
63089;SDS011;49174;43.198;27.824;2023-06-05T00:32:48;4.40;;;1.48;;
63089;SDS011;49174;43.198;27.824;2023-06-05T00:35:14;2.67;;;1.50;;
63089;SDS011;49174;43.198;27.824;2023-06-05T00:37:39;4.93;;;1.55;;
63089;SDS011;49174;43.198;27.824;2023-06-05T00:40:05;2.63;;;1.35;;
63089;SDS011;49174;43.198;27.824;2023-06-05T00:42:31;5.28;;;1.52;;
63089;SDS011;49174;43.198;27.824;2023-06-05T00:44:57;3.42;;;1.33;;
63089;SDS011;49174;43.198;27.824;2023-06-05T00:47:22;3.28;;;1.10;;
63089;SDS011;49174;43.198;27.824;2023-06-05T00:49:48;6.90;;;2.15;;
63089;SDS011;49174;43.198;27.824;2023-06-05T00:52:14;5.47;;;1.50;;
63089;SDS011;49174;43.198;27.824;2023-06-05T00:54:40;4.95;;;1.63;;
63089;SDS011;49174;43.198;27.824;2023-06-05T00:57:07;2.95;;;1.25;;
63089;SDS011;49174;43.198;27.824;2023-06-05T00:59:33;4.72;;;1.70;;
63089;SDS011;49174;43.198;27.824;2023-06-05T01:02:01;2.83;;;1.63;;
63089;SDS011;49174;43.198;27.824;2023-06-05T01:04:30;4.25;;;1.70;;
63089;SDS011;49174;43.198;27.824;2023-06-05T01:06:58;5.10;;;1.70;;
63089;SDS011;49174;43.198;27.824;2023-06-05T01:09:26;4.05;;;1.73;;
63089;SDS011;49174;43.198;27.824;2023-06-05T01:12:00;4.72;;;1.50;;
63089;SDS011;49174;43.198;27.824;2023-06-05T01:14:34;5.35;;;1.45;;
63089;SDS011;49174;43.198;27.824;2023-06-05T01:17:02;4.13;;;1.65;;
63089;SDS011;49174;43.198;27.824;2023-06-05T01:19:29;4.40;;;1.73;;
63089;SDS011;49174;43.198;27.824;2023-06-05T01:21:56;5.72;;;1.80;;
63089;SDS011;49174;43.198;27.824;2023-06-05T01:24:25;6.90;;;2.13;;
63089;SDS011;49174;43.198;27.824;2023-06-05T01:35:18;4.90;;;2.05;;
63089;SDS011;49174;43.198;27.824;2023-06-05T01:37:46;4.75;;;2.40;;
63089;SDS011;49174;43.198;27.824;2023-06-05T01:40:15;2.35;;;1.83;;
63089;SDS011;49174;43.198;27.824;2023-06-05T01:42:43;3.05;;;1.80;;
63089;SDS011;49174;43.198;27.824;2023-06-05T01:45:10;3.67;;;2.22;;
63089;SDS011;49174;43.198;27.824;2023-06-05T01:47:36;5.75;;;2.25;;
63089;SDS011;49174;43.198;27.824;2023-06-05T01:50:03;3.97;;;2.33;;
63089;SDS011;49174;43.198;27.824;2023-06-05T01:52:29;4.03;;;2.55;;
63089;SDS011;49174;43.198;27.824;2023-06-05T01:54:54;4.35;;;2.13;;
63089;SDS011;49174;43.198;27.824;2023-06-05T01:57:28;5.05;;;2.58;;
63089;SDS011;49174;43.198;27.824;2023-06-05T01:59:54;3.92;;;2.22;;
63089;SDS011;49174;43.198;27.824;2023-06-05T02:02:21;8.57;;;2.63;;
63089;SDS011;49174;43.198;27.824;2023-06-05T02:04:49;4.05;;;2.22;;
63089;SDS011;49174;43.198;27.824;2023-06-05T02:07:15;5.55;;;2.08;;
63089;SDS011;49174;43.198;27.824;2023-06-05T02:09:41;7.13;;;2.65;;
63089;SDS011;49174;43.198;27.824;2023-06-05T02:12:07;5.78;;;2.75;;
63089;SDS011;49174;43.198;27.824;2023-06-05T02:14:32;6.30;;;2.30;;
63089;SDS011;49174;43.198;27.824;2023-06-05T02:17:02;6.10;;;2.22;;
63089;SDS011;49174;43.198;27.824;2023-06-05T02:19:31;8.77;;;2.42;;
63089;SDS011;49174;43.198;27.824;2023-06-05T02:21:58;4.35;;;2.35;;
63089;SDS011;49174;43.198;27.824;2023-06-05T02:24:23;9.73;;;2.53;;
63089;SDS011;49174;43.198;27.824;2023-06-05T02:26:50;4.03;;;2.38;;
63089;SDS011;49174;43.198;27.824;2023-06-05T02:29:15;4.47;;;2.40;;
63089;SDS011;49174;43.198;27.824;2023-06-05T02:31:41;4.95;;;2.22;;
63089;SDS011;49174;43.198;27.824;2023-06-05T02:34:06;6.32;;;2.53;;
63089;SDS011;49174;43.198;27.824;2023-06-05T02:36:32;5.00;;;2.50;;
63089;SDS011;49174;43.198;27.824;2023-06-05T02:38:58;5.95;;;2.63;;
63089;SDS011;49174;43.198;27.824;2023-06-05T02:41:24;5.95;;;2.75;;
63089;SDS011;49174;43.198;27.824;2023-06-05T02:43:54;7.45;;;2.55;;
63089;SDS011;49174;43.198;27.824;2023-06-05T02:46:20;7.28;;;2.53;;
63089;SDS011;49174;43.198;27.824;2023-06-05T02:48:53;6.18;;;2.65;;
63089;SDS011;49174;43.198;27.824;2023-06-05T02:51:18;9.40;;;3.08;;
63089;SDS011;49174;43.198;27.824;2023-06-05T02:53:44;7.88;;;3.20;;
63089;SDS011;49174;43.198;27.824;2023-06-05T02:56:10;9.82;;;3.38;;
63089;SDS011;49174;43.198;27.824;2023-06-05T02:58:35;11.48;;;4.00;;
63089;SDS011;49174;43.198;27.824;2023-06-05T03:01:02;9.77;;;3.78;;
63089;SDS011;49174;43.198;27.824;2023-06-05T03:03:29;12.65;;;5.25;;
63089;SDS011;49174;43.198;27.824;2023-06-05T03:05:56;12.85;;;4.90;;
63089;SDS011;49174;43.198;27.824;2023-06-05T03:08:32;14.45;;;5.43;;
63089;SDS011;49174;43.198;27.824;2023-06-05T03:10:59;9.80;;;5.65;;
63089;SDS011;49174;43.198;27.824;2023-06-05T03:13:25;15.25;;;6.78;;
63089;SDS011;49174;43.198;27.824;2023-06-05T03:15:50;9.65;;;4.82;;
63089;SDS011;49174;43.198;27.824;2023-06-05T03:18:19;12.88;;;5.50;;
63089;SDS011;49174;43.198;27.824;2023-06-05T03:20:47;10.38;;;4.38;;
63089;SDS011;49174;43.198;27.824;2023-06-05T03:23:15;13.68;;;4.97;;
63089;SDS011;49174;43.198;27.824;2023-06-05T03:25:40;11.07;;;4.55;;
63089;SDS011;49174;43.198;27.824;2023-06-05T03:28:06;13.68;;;5.72;;
63089;SDS011;49174;43.198;27.824;2023-06-05T03:30:31;14.00;;;5.70;;
63089;SDS011;49174;43.198;27.824;2023-06-05T03:32:57;13.52;;;6.60;;
63089;SDS011;49174;43.198;27.824;2023-06-05T03:35:22;11.57;;;6.95;;
63089;SDS011;49174;43.198;27.824;2023-06-05T03:37:48;16.38;;;7.57;;
63089;SDS011;49174;43.198;27.824;2023-06-05T03:40:13;19.95;;;8.52;;
63089;SDS011;49174;43.198;27.824;2023-06-05T03:42:39;20.48;;;9.10;;
63089;SDS011;49174;43.198;27.824;2023-06-05T03:45:04;22.92;;;9.30;;
63089;SDS011;49174;43.198;27.824;2023-06-05T03:47:31;16.08;;;8.75;;
63089;SDS011;49174;43.198;27.824;2023-06-05T03:49:59;13.80;;;8.25;;
63089;SDS011;49174;43.198;27.824;2023-06-05T03:52:25;14.85;;;7.80;;
63089;SDS011;49174;43.198;27.824;2023-06-05T03:54:51;17.95;;;8.45;;
63089;SDS011;49174;43.198;27.824;2023-06-05T03:57:19;16.33;;;7.88;;
63089;SDS011;49174;43.198;27.824;2023-06-05T03:59:45;15.20;;;9.05;;
63089;SDS011;49174;43.198;27.824;2023-06-05T04:02:12;14.88;;;8.55;;
63089;SDS011;49174;43.198;27.824;2023-06-05T04:04:39;23.92;;;9.35;;
63089;SDS011;49174;43.198;27.824;2023-06-05T04:07:05;17.75;;;9.02;;
63089;SDS011;49174;43.198;27.824;2023-06-05T04:09:31;17.58;;;10.88;;
63089;SDS011;49174;43.198;27.824;2023-06-05T04:11:57;23.60;;;12.98;;
63089;SDS011;49174;43.198;27.824;2023-06-05T04:14:23;24.55;;;12.35;;
63089;SDS011;49174;43.198;27.824;2023-06-05T04:16:49;27.55;;;13.00;;
63089;SDS011;49174;43.198;27.824;2023-06-05T04:19:15;21.40;;;12.15;;
63089;SDS011;49174;43.198;27.824;2023-06-05T04:21:41;29.02;;;11.27;;
63089;SDS011;49174;43.198;27.824;2023-06-05T04:24:07;20.95;;;11.02;;
63089;SDS011;49174;43.198;27.824;2023-06-05T04:26:38;16.08;;;10.70;;
63089;SDS011;49174;43.198;27.824;2023-06-05T04:29:06;22.50;;;10.15;;
63089;SDS011;49174;43.198;27.824;2023-06-05T04:31:39;21.10;;;9.52;;
63089;SDS011;49174;43.198;27.824;2023-06-05T04:34:06;22.50;;;8.82;;
63089;SDS011;49174;43.198;27.824;2023-06-05T04:36:34;18.77;;;8.20;;
63089;SDS011;49174;43.198;27.824;2023-06-05T04:39:01;18.30;;;8.20;;
63089;SDS011;49174;43.198;27.824;2023-06-05T04:41:29;17.23;;;7.85;;
63089;SDS011;49174;43.198;27.824;2023-06-05T04:43:57;13.43;;;8.50;;
63089;SDS011;49174;43.198;27.824;2023-06-05T04:46:25;14.45;;;8.05;;
63089;SDS011;49174;43.198;27.824;2023-06-05T04:48:51;12.50;;;7.50;;
63089;SDS011;49174;43.198;27.824;2023-06-05T04:51:20;13.93;;;8.00;;
63089;SDS011;49174;43.198;27.824;2023-06-05T04:53:46;11.15;;;6.80;;
63089;SDS011;49174;43.198;27.824;2023-06-05T04:56:15;11.57;;;6.45;;
63089;SDS011;49174;43.198;27.824;2023-06-05T04:58:41;11.93;;;6.07;;
63089;SDS011;49174;43.198;27.824;2023-06-05T05:01:07;10.02;;;4.85;;
63089;SDS011;49174;43.198;27.824;2023-06-05T05:03:33;10.07;;;4.70;;
63089;SDS011;49174;43.198;27.824;2023-06-05T05:05:59;11.57;;;5.28;;
63089;SDS011;49174;43.198;27.824;2023-06-05T05:08:25;9.48;;;5.43;;
63089;SDS011;49174;43.198;27.824;2023-06-05T05:10:52;10.23;;;4.70;;
63089;SDS011;49174;43.198;27.824;2023-06-05T05:13:18;8.60;;;4.63;;
63089;SDS011;49174;43.198;27.824;2023-06-05T05:15:44;8.82;;;4.53;;
63089;SDS011;49174;43.198;27.824;2023-06-05T05:18:10;9.38;;;5.18;;
63089;SDS011;49174;43.198;27.824;2023-06-05T05:20:35;9.18;;;5.30;;
63089;SDS011;49174;43.198;27.824;2023-06-05T05:23:01;10.10;;;5.38;;
63089;SDS011;49174;43.198;27.824;2023-06-05T05:25:27;10.43;;;6.35;;
63089;SDS011;49174;43.198;27.824;2023-06-05T05:27:53;11.02;;;6.32;;
63089;SDS011;49174;43.198;27.824;2023-06-05T05:30:19;11.25;;;5.82;;
63089;SDS011;49174;43.198;27.824;2023-06-05T05:32:44;15.40;;;8.02;;
63089;SDS011;49174;43.198;27.824;2023-06-05T05:35:10;16.95;;;9.82;;
63089;SDS011;49174;43.198;27.824;2023-06-05T05:37:36;13.75;;;8.52;;
63089;SDS011;49174;43.198;27.824;2023-06-05T05:40:01;15.05;;;8.27;;
63089;SDS011;49174;43.198;27.824;2023-06-05T05:42:29;12.23;;;8.02;;
63089;SDS011;49174;43.198;27.824;2023-06-05T05:44:54;13.15;;;7.25;;
63089;SDS011;49174;43.198;27.824;2023-06-05T05:47:20;10.82;;;7.05;;
63089;SDS011;49174;43.198;27.824;2023-06-05T05:49:46;9.63;;;6.38;;
63089;SDS011;49174;43.198;27.824;2023-06-05T05:52:11;14.70;;;7.13;;
63089;SDS011;49174;43.198;27.824;2023-06-05T05:54:37;10.00;;;6.13;;
63089;SDS011;49174;43.198;27.824;2023-06-05T05:57:02;9.07;;;6.03;;
63089;SDS011;49174;43.198;27.824;2023-06-05T05:59:29;10.52;;;5.93;;
63089;SDS011;49174;43.198;27.824;2023-06-05T06:01:55;10.65;;;5.60;;
63089;SDS011;49174;43.198;27.824;2023-06-05T06:04:23;5.85;;;3.80;;
63089;SDS011;49174;43.198;27.824;2023-06-05T06:06:49;7.80;;;4.28;;
63089;SDS011;49174;43.198;27.824;2023-06-05T06:09:17;8.35;;;3.80;;
63089;SDS011;49174;43.198;27.824;2023-06-05T06:11:43;7.38;;;3.00;;
63089;SDS011;49174;43.198;27.824;2023-06-05T06:14:09;5.82;;;2.83;;
63089;SDS011;49174;43.198;27.824;2023-06-05T06:16:38;4.63;;;2.15;;
63089;SDS011;49174;43.198;27.824;2023-06-05T06:19:05;3.15;;;1.65;;
63089;SDS011;49174;43.198;27.824;2023-06-05T06:21:31;5.35;;;1.85;;
63089;SDS011;49174;43.198;27.824;2023-06-05T06:23:57;5.75;;;2.25;;
63089;SDS011;49174;43.198;27.824;2023-06-05T06:26:22;5.90;;;2.22;;
63089;SDS011;49174;43.198;27.824;2023-06-05T06:28:48;3.95;;;1.60;;
63089;SDS011;49174;43.198;27.824;2023-06-05T06:31:13;3.22;;;1.75;;
63089;SDS011;49174;43.198;27.824;2023-06-05T06:33:40;3.30;;;1.70;;
63089;SDS011;49174;43.198;27.824;2023-06-05T06:36:06;4.50;;;1.50;;
63089;SDS011;49174;43.198;27.824;2023-06-05T06:38:31;2.05;;;1.40;;
63089;SDS011;49174;43.198;27.824;2023-06-05T06:40:58;3.92;;;1.27;;
63089;SDS011;49174;43.198;27.824;2023-06-05T06:43:24;5.05;;;1.40;;
63089;SDS011;49174;43.198;27.824;2023-06-05T06:45:50;2.20;;;1.33;;
63089;SDS011;49174;43.198;27.824;2023-06-05T06:48:17;7.45;;;1.50;;
63089;SDS011;49174;43.198;27.824;2023-06-05T06:50:43;4.57;;;1.63;;
63089;SDS011;49174;43.198;27.824;2023-06-05T06:53:10;5.43;;;1.42;;
63089;SDS011;49174;43.198;27.824;2023-06-05T06:55:36;3.88;;;1.00;;
63089;SDS011;49174;43.198;27.824;2023-06-05T06:58:02;2.60;;;1.00;;
63089;SDS011;49174;43.198;27.824;2023-06-05T07:00:29;3.50;;;1.38;;
63089;SDS011;49174;43.198;27.824;2023-06-05T07:02:54;2.25;;;1.08;;
63089;SDS011;49174;43.198;27.824;2023-06-05T07:05:20;2.78;;;1.10;;
63089;SDS011;49174;43.198;27.824;2023-06-05T07:07:46;3.20;;;0.88;;
63089;SDS011;49174;43.198;27.824;2023-06-05T07:10:11;3.83;;;1.15;;
63089;SDS011;49174;43.198;27.824;2023-06-05T07:12:37;2.33;;;1.33;;
63089;SDS011;49174;43.198;27.824;2023-06-05T07:15:03;3.60;;;0.90;;
63089;SDS011;49174;43.198;27.824;2023-06-05T07:17:29;2.40;;;1.38;;
63089;SDS011;49174;43.198;27.824;2023-06-05T07:19:58;2.33;;;0.98;;
63089;SDS011;49174;43.198;27.824;2023-06-05T07:22:24;1.40;;;0.85;;
63089;SDS011;49174;43.198;27.824;2023-06-05T07:24:53;2.40;;;0.85;;
63089;SDS011;49174;43.198;27.824;2023-06-05T07:27:19;1.77;;;1.05;;
63089;SDS011;49174;43.198;27.824;2023-06-05T07:29:45;3.35;;;0.95;;
63089;SDS011;49174;43.198;27.824;2023-06-05T07:32:12;2.05;;;1.70;;
63089;SDS011;49174;43.198;27.824;2023-06-05T07:34:38;2.03;;;0.88;;
63089;SDS011;49174;43.198;27.824;2023-06-05T07:37:03;1.75;;;1.00;;
63089;SDS011;49174;43.198;27.824;2023-06-05T07:39:29;2.65;;;1.02;;
63089;SDS011;49174;43.198;27.824;2023-06-05T07:41:55;3.95;;;1.02;;
63089;SDS011;49174;43.198;27.824;2023-06-05T07:44:21;3.70;;;1.20;;
63089;SDS011;49174;43.198;27.824;2023-06-05T07:46:47;5.53;;;1.13;;
63089;SDS011;49174;43.198;27.824;2023-06-05T07:49:13;5.47;;;1.42;;
63089;SDS011;49174;43.198;27.824;2023-06-05T07:51:40;3.17;;;1.38;;
63089;SDS011;49174;43.198;27.824;2023-06-05T07:54:11;5.05;;;1.90;;
63089;SDS011;49174;43.198;27.824;2023-06-05T07:56:37;3.75;;;1.08;;
63089;SDS011;49174;43.198;27.824;2023-06-05T07:59:04;3.05;;;1.02;;
63089;SDS011;49174;43.198;27.824;2023-06-05T08:01:31;2.17;;;1.30;;
63089;SDS011;49174;43.198;27.824;2023-06-05T08:04:03;4.05;;;1.52;;
63089;SDS011;49174;43.198;27.824;2023-06-05T08:06:30;2.47;;;1.00;;
63089;SDS011;49174;43.198;27.824;2023-06-05T08:08:59;3.15;;;1.20;;
63089;SDS011;49174;43.198;27.824;2023-06-05T08:11:25;3.85;;;1.30;;
63089;SDS011;49174;43.198;27.824;2023-06-05T08:13:51;2.25;;;1.00;;
63089;SDS011;49174;43.198;27.824;2023-06-05T08:16:17;5.32;;;1.13;;
63089;SDS011;49174;43.198;27.824;2023-06-05T08:18:42;3.85;;;0.82;;
63089;SDS011;49174;43.198;27.824;2023-06-05T08:21:08;1.88;;;1.10;;
63089;SDS011;49174;43.198;27.824;2023-06-05T08:23:33;3.53;;;1.20;;
63089;SDS011;49174;43.198;27.824;2023-06-05T08:25:59;4.45;;;0.82;;
63089;SDS011;49174;43.198;27.824;2023-06-05T08:28:25;2.33;;;0.77;;
63089;SDS011;49174;43.198;27.824;2023-06-05T08:30:51;2.83;;;1.40;;
63089;SDS011;49174;43.198;27.824;2023-06-05T08:33:19;0.98;;;0.70;;
63089;SDS011;49174;43.198;27.824;2023-06-05T08:35:45;3.33;;;1.02;;
63089;SDS011;49174;43.198;27.824;2023-06-05T08:38:10;3.95;;;1.02;;
63089;SDS011;49174;43.198;27.824;2023-06-05T08:40:36;4.35;;;1.05;;
63089;SDS011;49174;43.198;27.824;2023-06-05T08:43:04;3.15;;;1.15;;
63089;SDS011;49174;43.198;27.824;2023-06-05T08:45:31;9.48;;;1.02;;
63089;SDS011;49174;43.198;27.824;2023-06-05T08:47:58;2.35;;;0.98;;
63089;SDS011;49174;43.198;27.824;2023-06-05T08:50:26;1.55;;;0.88;;
63089;SDS011;49174;43.198;27.824;2023-06-05T08:52:53;2.72;;;1.00;;
63089;SDS011;49174;43.198;27.824;2023-06-05T08:55:23;4.38;;;1.13;;
63089;SDS011;49174;43.198;27.824;2023-06-05T08:57:50;1.95;;;0.88;;
63089;SDS011;49174;43.198;27.824;2023-06-05T09:00:17;1.52;;;1.00;;
63089;SDS011;49174;43.198;27.824;2023-06-05T09:02:42;2.78;;;0.80;;
63089;SDS011;49174;43.198;27.824;2023-06-05T09:05:14;3.15;;;0.90;;
63089;SDS011;49174;43.198;27.824;2023-06-05T09:07:40;5.88;;;1.10;;
63089;SDS011;49174;43.198;27.824;2023-06-05T09:10:07;1.75;;;1.00;;
63089;SDS011;49174;43.198;27.824;2023-06-05T09:12:54;2.47;;;0.93;;
63089;SDS011;49174;43.198;27.824;2023-06-05T09:15:29;1.67;;;1.02;;
63089;SDS011;49174;43.198;27.824;2023-06-05T09:18:08;1.23;;;1.10;;
63089;SDS011;49174;43.198;27.824;2023-06-05T09:20:36;3.95;;;0.82;;
63089;SDS011;49174;43.198;27.824;2023-06-05T09:23:20;3.58;;;1.73;;
63089;SDS011;49174;43.198;27.824;2023-06-05T09:25:52;1.85;;;1.00;;
63089;SDS011;49174;43.198;27.824;2023-06-05T09:28:18;1.88;;;0.80;;
63089;SDS011;49174;43.198;27.824;2023-06-05T09:30:54;1.33;;;0.80;;
63089;SDS011;49174;43.198;27.824;2023-06-05T09:33:22;3.42;;;0.80;;
63089;SDS011;49174;43.198;27.824;2023-06-05T09:36:01;5.72;;;1.30;;
63089;SDS011;49174;43.198;27.824;2023-06-05T09:38:31;1.83;;;0.80;;
63089;SDS011;49174;43.198;27.824;2023-06-05T09:43:29;1.33;;;0.85;;
63089;SDS011;49174;43.198;27.824;2023-06-05T09:45:54;1.80;;;0.80;;
63089;SDS011;49174;43.198;27.824;2023-06-05T09:48:20;5.35;;;1.55;;
63089;SDS011;49174;43.198;27.824;2023-06-05T09:50:45;2.42;;;1.20;;
63089;SDS011;49174;43.198;27.824;2023-06-05T09:53:12;2.50;;;0.80;;
63089;SDS011;49174;43.198;27.824;2023-06-05T09:55:41;1.45;;;0.82;;
63089;SDS011;49174;43.198;27.824;2023-06-05T09:58:07;1.15;;;0.70;;
63089;SDS011;49174;43.198;27.824;2023-06-05T10:00:39;1.38;;;0.80;;
63089;SDS011;49174;43.198;27.824;2023-06-05T10:03:13;3.13;;;0.70;;
63089;SDS011;49174;43.198;27.824;2023-06-05T10:05:40;1.60;;;0.95;;
63089;SDS011;49174;43.198;27.824;2023-06-05T10:08:10;2.58;;;0.80;;
63089;SDS011;49174;43.198;27.824;2023-06-05T10:10:37;1.13;;;0.88;;
63089;SDS011;49174;43.198;27.824;2023-06-05T10:13:04;1.95;;;0.93;;
63089;SDS011;49174;43.198;27.824;2023-06-05T10:15:31;1.55;;;1.00;;
63089;SDS011;49174;43.198;27.824;2023-06-05T10:17:57;2.30;;;0.80;;
63089;SDS011;49174;43.198;27.824;2023-06-05T10:20:23;1.65;;;1.10;;
63089;SDS011;49174;43.198;27.824;2023-06-05T10:22:49;3.42;;;0.85;;
63089;SDS011;49174;43.198;27.824;2023-06-05T10:25:15;2.72;;;0.77;;
63089;SDS011;49174;43.198;27.824;2023-06-05T10:30:25;1.85;;;0.98;;
63089;SDS011;49174;43.198;27.824;2023-06-05T10:38:26;0.98;;;0.70;;
63089;SDS011;49174;43.198;27.824;2023-06-05T10:40:54;3.22;;;1.00;;
63089;SDS011;49174;43.198;27.824;2023-06-05T10:43:27;2.38;;;1.00;;
63089;SDS011;49174;43.198;27.824;2023-06-05T10:46:28;3.58;;;0.68;;
63089;SDS011;49174;43.198;27.824;2023-06-05T10:49:14;3.13;;;1.30;;
63089;SDS011;49174;43.198;27.824;2023-06-05T10:51:46;1.95;;;0.70;;
63089;SDS011;49174;43.198;27.824;2023-06-05T10:59:17;0.80;;;0.70;;
63089;SDS011;49174;43.198;27.824;2023-06-05T11:07:14;3.25;;;1.00;;
63089;SDS011;49174;43.198;27.824;2023-06-05T11:15:06;0.95;;;0.50;;
63089;SDS011;49174;43.198;27.824;2023-06-05T11:17:33;2.45;;;0.80;;
63089;SDS011;49174;43.198;27.824;2023-06-05T11:20:03;1.23;;;0.60;;
63089;SDS011;49174;43.198;27.824;2023-06-05T11:30:16;1.00;;;0.57;;
63089;SDS011;49174;43.198;27.824;2023-06-05T11:32:43;0.98;;;0.70;;
63089;SDS011;49174;43.198;27.824;2023-06-05T11:35:09;0.85;;;0.70;;
63089;SDS011;49174;43.198;27.824;2023-06-05T11:37:35;1.65;;;0.90;;
63089;SDS011;49174;43.198;27.824;2023-06-05T11:40:05;2.75;;;0.70;;
63089;SDS011;49174;43.198;27.824;2023-06-05T11:42:35;0.68;;;0.55;;
63089;SDS011;49174;43.198;27.824;2023-06-05T11:45:09;5.70;;;0.77;;
63089;SDS011;49174;43.198;27.824;2023-06-05T11:47:35;1.80;;;0.98;;
63089;SDS011;49174;43.198;27.824;2023-06-05T11:52:33;1.20;;;0.73;;
63089;SDS011;49174;43.198;27.824;2023-06-05T11:55:14;2.15;;;0.60;;
63089;SDS011;49174;43.198;27.824;2023-06-05T11:57:46;1.55;;;0.90;;
63089;SDS011;49174;43.198;27.824;2023-06-05T12:00:12;2.60;;;1.00;;
63089;SDS011;49174;43.198;27.824;2023-06-05T12:02:39;1.38;;;0.80;;
63089;SDS011;49174;43.198;27.824;2023-06-05T12:05:10;1.83;;;1.10;;
63089;SDS011;49174;43.198;27.824;2023-06-05T12:07:36;3.25;;;0.95;;
63089;SDS011;49174;43.198;27.824;2023-06-05T12:10:05;1.10;;;0.70;;
63089;SDS011;49174;43.198;27.824;2023-06-05T12:12:32;0.98;;;0.70;;
63089;SDS011;49174;43.198;27.824;2023-06-05T12:15:14;1.90;;;0.90;;
63089;SDS011;49174;43.198;27.824;2023-06-05T12:17:40;3.63;;;0.95;;
63089;SDS011;49174;43.198;27.824;2023-06-05T12:20:06;0.85;;;0.63;;
63089;SDS011;49174;43.198;27.824;2023-06-05T12:22:34;2.08;;;0.85;;
63089;SDS011;49174;43.198;27.824;2023-06-05T12:25:16;1.67;;;0.98;;
63089;SDS011;49174;43.198;27.824;2023-06-05T12:27:45;1.55;;;0.80;;
63089;SDS011;49174;43.198;27.824;2023-06-05T12:30:11;3.30;;;0.90;;
63089;SDS011;49174;43.198;27.824;2023-06-05T12:32:38;4.03;;;0.80;;
63089;SDS011;49174;43.198;27.824;2023-06-05T12:35:04;3.67;;;0.77;;
63089;SDS011;49174;43.198;27.824;2023-06-05T12:39:57;3.05;;;0.80;;
63089;SDS011;49174;43.198;27.824;2023-06-05T12:42:27;1.95;;;0.68;;
63089;SDS011;49174;43.198;27.824;2023-06-05T12:44:53;4.20;;;0.85;;
63089;SDS011;49174;43.198;27.824;2023-06-05T12:47:19;1.63;;;0.70;;
63089;SDS011;49174;43.198;27.824;2023-06-05T12:49:45;1.30;;;0.77;;
63089;SDS011;49174;43.198;27.824;2023-06-05T12:52:12;1.40;;;0.70;;
63089;SDS011;49174;43.198;27.824;2023-06-05T12:54:37;4.57;;;0.90;;
63089;SDS011;49174;43.198;27.824;2023-06-05T12:57:04;3.13;;;1.20;;
63089;SDS011;49174;43.198;27.824;2023-06-05T12:59:33;2.13;;;0.95;;
63089;SDS011;49174;43.198;27.824;2023-06-05T13:01:59;1.73;;;0.80;;
63089;SDS011;49174;43.198;27.824;2023-06-05T13:04:25;2.78;;;1.05;;
63089;SDS011;49174;43.198;27.824;2023-06-05T13:06:51;2.13;;;0.90;;
63089;SDS011;49174;43.198;27.824;2023-06-05T13:09:17;2.58;;;0.77;;
63089;SDS011;49174;43.198;27.824;2023-06-05T13:11:42;1.55;;;1.00;;
63089;SDS011;49174;43.198;27.824;2023-06-05T13:14:08;1.55;;;0.70;;
63089;SDS011;49174;43.198;27.824;2023-06-05T13:16:34;1.95;;;0.70;;
63089;SDS011;49174;43.198;27.824;2023-06-05T13:19:00;2.25;;;0.90;;
63089;SDS011;49174;43.198;27.824;2023-06-05T13:21:26;1.85;;;0.82;;
63089;SDS011;49174;43.198;27.824;2023-06-05T13:23:51;1.50;;;0.77;;
63089;SDS011;49174;43.198;27.824;2023-06-05T13:26:17;3.10;;;0.80;;
63089;SDS011;49174;43.198;27.824;2023-06-05T13:28:43;2.30;;;0.75;;
63089;SDS011;49174;43.198;27.824;2023-06-05T13:31:10;3.65;;;1.00;;
63089;SDS011;49174;43.198;27.824;2023-06-05T13:33:36;3.75;;;0.63;;
63089;SDS011;49174;43.198;27.824;2023-06-05T13:36:02;1.75;;;1.10;;
63089;SDS011;49174;43.198;27.824;2023-06-05T13:38:27;1.27;;;0.60;;
63089;SDS011;49174;43.198;27.824;2023-06-05T13:40:53;2.90;;;1.05;;
63089;SDS011;49174;43.198;27.824;2023-06-05T13:43:19;3.25;;;0.85;;
63089;SDS011;49174;43.198;27.824;2023-06-05T13:45:45;1.80;;;1.08;;
63089;SDS011;49174;43.198;27.824;2023-06-05T13:48:13;2.25;;;0.90;;
63089;SDS011;49174;43.198;27.824;2023-06-05T13:50:38;1.63;;;0.68;;
63089;SDS011;49174;43.198;27.824;2023-06-05T13:53:04;2.65;;;1.10;;
63089;SDS011;49174;43.198;27.824;2023-06-05T13:55:29;2.20;;;0.80;;
63089;SDS011;49174;43.198;27.824;2023-06-05T13:57:55;1.25;;;0.65;;
63089;SDS011;49174;43.198;27.824;2023-06-05T14:00:29;1.30;;;0.73;;
63089;SDS011;49174;43.198;27.824;2023-06-05T14:02:55;3.25;;;1.00;;
63089;SDS011;49174;43.198;27.824;2023-06-05T14:05:21;1.80;;;0.88;;
63089;SDS011;49174;43.198;27.824;2023-06-05T14:07:46;1.65;;;0.80;;
63089;SDS011;49174;43.198;27.824;2023-06-05T14:10:14;2.55;;;0.80;;
63089;SDS011;49174;43.198;27.824;2023-06-05T14:12:40;3.60;;;1.00;;
63089;SDS011;49174;43.198;27.824;2023-06-05T14:15:05;2.00;;;0.90;;
63089;SDS011;49174;43.198;27.824;2023-06-05T14:17:32;5.35;;;2.95;;
63089;SDS011;49174;43.198;27.824;2023-06-05T14:19:57;2.17;;;0.80;;
63089;SDS011;49174;43.198;27.824;2023-06-05T14:22:23;2.75;;;0.82;;
63089;SDS011;49174;43.198;27.824;2023-06-05T14:24:48;1.25;;;0.77;;
63089;SDS011;49174;43.198;27.824;2023-06-05T14:27:14;1.77;;;0.85;;
63089;SDS011;49174;43.198;27.824;2023-06-05T14:29:40;2.58;;;0.80;;
63089;SDS011;49174;43.198;27.824;2023-06-05T14:32:06;2.70;;;0.80;;
63089;SDS011;49174;43.198;27.824;2023-06-05T14:34:32;1.17;;;0.80;;
63089;SDS011;49174;43.198;27.824;2023-06-05T14:36:58;3.10;;;1.05;;
63089;SDS011;49174;43.198;27.824;2023-06-05T14:39:24;2.22;;;0.80;;
63089;SDS011;49174;43.198;27.824;2023-06-05T14:41:49;2.88;;;0.70;;
63089;SDS011;49174;43.198;27.824;2023-06-05T14:44:15;1.30;;;0.68;;
63089;SDS011;49174;43.198;27.824;2023-06-05T14:46:41;2.33;;;0.88;;
63089;SDS011;49174;43.198;27.824;2023-06-05T14:49:06;1.50;;;0.70;;
63089;SDS011;49174;43.198;27.824;2023-06-05T14:51:32;1.73;;;0.70;;
63089;SDS011;49174;43.198;27.824;2023-06-05T14:53:57;1.65;;;0.80;;
63089;SDS011;49174;43.198;27.824;2023-06-05T14:56:23;6.00;;;1.27;;
63089;SDS011;49174;43.198;27.824;2023-06-05T14:58:48;2.97;;;0.70;;
63089;SDS011;49174;43.198;27.824;2023-06-05T15:01:17;2.13;;;0.55;;
63089;SDS011;49174;43.198;27.824;2023-06-05T15:03:42;1.65;;;1.00;;
63089;SDS011;49174;43.198;27.824;2023-06-05T15:06:08;3.45;;;0.73;;
63089;SDS011;49174;43.198;27.824;2023-06-05T15:08:33;1.73;;;0.85;;
63089;SDS011;49174;43.198;27.824;2023-06-05T15:11:00;1.98;;;0.90;;
63089;SDS011;49174;43.198;27.824;2023-06-05T15:13:25;1.23;;;0.60;;
63089;SDS011;49174;43.198;27.824;2023-06-05T15:15:51;1.30;;;0.73;;
63089;SDS011;49174;43.198;27.824;2023-06-05T15:18:17;3.20;;;0.70;;